Time;durP1;ratioP1;P1;durP2;ratioP2;P2;SDS_P1;SDS_P2;PMS_P1;PMS_P2;Temp;Humidity;BMP_temperature;BMP_pressure;BME280_temperature;BME280_humidity;BME280_pressure;Samples;Min_cycle;Max_cycle;Signal;HPM_P1;HPM_P2
2022/05/20 00:00:29;;;;;;;3.83;1.92;;;;;;;13.96;54.76;100745.69;4364813;32;32071;-92
2022/05/20 00:03:32;;;;;;;2.45;1.70;;;;;;;13.77;55.81;100742.09;4376633;32;32873;-88
2022/05/20 00:06:02;;;;;;;7.25;2.20;;;;;;;13.59;56.71;100746.34;4360489;32;33296;-88
2022/05/20 00:08:31;;;;;;;4.85;1.87;;;;;;;13.63;56.31;100741.78;4356046;32;32215;-88
2022/05/20 00:11:00;;;;;;;1.85;1.45;;;;;;;13.67;56.00;100746.03;4362798;32;33548;-88
2022/05/20 00:13:29;;;;;;;3.08;2.03;;;;;;;13.83;55.41;100739.16;4388001;32;34636;-88
2022/05/20 00:15:57;;;;;;;6.12;1.80;;;;;;;13.74;55.46;100739.53;4366916;32;34077;-89
2022/05/20 00:18:25;;;;;;;3.30;2.00;;;;;;;13.36;56.14;100734.03;4362750;32;32577;-89
2022/05/20 00:20:53;;;;;;;6.30;1.92;;;;;;;13.66;55.42;100736.34;4364792;32;33289;-89
2022/05/20 00:23:21;;;;;;;9.43;2.03;;;;;;;13.77;54.82;100734.12;4364316;32;33957;-88
2022/05/20 00:25:50;;;;;;;1.70;1.23;;;;;;;13.35;55.86;100747.34;4376525;32;33936;-88
2022/05/20 00:28:20;;;;;;;2.12;1.70;;;;;;;13.51;55.14;100744.00;4381583;32;32673;-89
2022/05/20 00:30:50;;;;;;;2.80;1.95;;;;;;;13.49;55.05;100739.69;4365636;32;33427;-89
2022/05/20 00:33:18;;;;;;;6.32;1.83;;;;;;;13.59;54.69;100733.09;4368715;32;32733;-88
2022/05/20 00:35:46;;;;;;;2.40;1.85;;;;;;;13.48;55.09;100738.84;4351787;32;32535;-89
2022/05/20 00:38:15;;;;;;;2.75;1.73;;;;;;;13.66;54.46;100733.69;4363407;32;32650;-88
2022/05/20 00:40:44;;;;;;;5.47;1.92;;;;;;;13.38;55.01;100731.28;4351352;32;32835;-88
2022/05/20 00:43:14;;;;;;;2.80;1.92;;;;;;;13.42;54.97;100728.44;4372925;32;34582;-89
2022/05/20 00:45:44;;;;;;;3.50;1.83;;;;;;;13.49;54.91;100739.69;4368500;32;33148;-89
2022/05/20 00:48:13;;;;;;;2.65;1.40;;;;;;;13.34;55.26;100746.50;4356180;32;33816;-89
2022/05/20 00:50:44;;;;;;;2.33;1.50;;;;;;;13.49;54.84;100756.47;4367327;32;33241;-89
2022/05/20 00:53:14;;;;;;;2.70;1.65;;;;;;;13.32;54.97;100757.16;4339060;32;32327;-89
2022/05/20 00:55:43;;;;;;;4.35;2.12;;;;;;;13.50;54.41;100754.69;4362378;32;33670;-89
2022/05/20 00:58:16;;;;;;;10.35;1.95;;;;;;;13.45;54.51;100744.25;4362747;32;32564;-89
2022/05/20 01:00:52;;;;;;;1.80;1.40;;;;;;;13.40;54.75;100754.19;4374221;32;33363;-88
2022/05/20 01:03:27;;;;;;;1.95;1.42;;;;;;;13.49;54.54;100745.87;4354007;32;33438;-89
2022/05/20 01:05:56;;;;;;;3.05;1.40;;;;;;;13.50;54.49;100741.44;4356299;32;33299;-88
2022/05/20 01:08:28;;;;;;;4.10;1.58;;;;;;;13.45;54.66;100738.97;4374526;32;32855;-87
2022/05/20 01:10:56;;;;;;;;;;;;;;;13.36;54.74;100739.31;4366464;32;33795;-87
2022/05/20 01:13:26;;;;;;;2.70;1.65;;;;;;;13.14;55.62;100743.72;4370347;32;34213;-87
2022/05/20 01:15:54;;;;;;;3.00;1.52;;;;;;;13.01;56.08;100738.91;4371030;32;33978;-86
2022/05/20 01:18:23;;;;;;;4.78;1.50;;;;;;;13.19;55.37;100741.75;4369887;32;33755;-86
2022/05/20 01:20:54;;;;;;;2.62;1.27;;;;;;;13.02;55.94;100745.94;4372317;32;32798;-87
2022/05/20 01:23:25;;;;;;;1.85;1.60;;;;;;;13.04;55.93;100744.06;4355703;32;33003;-88
2022/05/20 01:25:55;;;;;;;2.00;1.60;;;;;;;13.08;55.59;100735.06;4368050;32;34365;-89
2022/05/20 01:28:25;;;;;;;2.97;1.35;;;;;;;13.05;55.77;100740.53;4369328;32;33942;-88
2022/05/20 01:30:55;;;;;;;3.53;1.60;;;;;;;13.08;55.93;100734.22;4361801;32;33342;-89
2022/05/20 01:33:36;;;;;;;4.45;1.92;;;;;;;12.95;56.34;100738.25;4356854;32;32836;-88
2022/05/20 01:36:08;;;;;;;4.45;1.60;;;;;;;12.88;56.58;100742.09;4369378;32;33384;-88
2022/05/20 01:38:36;;;;;;;3.58;1.75;;;;;;;13.03;56.15;100734.41;4365527;32;33292;-87
2022/05/20 01:41:08;;;;;;;2.53;1.83;;;;;;;12.94;56.61;100737.41;4363461;32;33402;-87
2022/05/20 01:43:53;;;;;;;2.03;1.83;;;;;;;13.03;56.16;100737.03;4356070;32;33826;-90
2022/05/20 01:46:32;;;;;;;4.43;1.83;;;;;;;12.82;56.54;100740.53;4366935;32;33951;-90
2022/05/20 01:49:16;;;;;;;1.73;1.17;;;;;;;12.67;56.88;100739.31;4366914;32;33724;-88
2022/05/20 01:52:10;;;;;;;4.93;1.77;;;;;;;12.78;56.52;100736.28;4352272;32;31903;-88
2022/05/20 01:54:52;;;;;;;3.05;1.87;;;;;;;12.73;56.46;100724.97;4358294;32;33896;-89
2022/05/20 01:57:30;;;;;;;5.18;1.48;;;;;;;12.62;56.63;100724.50;4368804;32;33032;-88
2022/05/20 02:00:18;;;;;;;3.30;2.00;;;;;;;12.56;57.15;100715.88;4373671;32;32991;-88
2022/05/20 02:03:14;;;;;;;3.08;1.98;;;;;;;12.72;56.60;100710.88;4372905;32;31955;-88
2022/05/20 02:05:57;;;;;;;2.60;1.70;;;;;;;12.97;55.88;100712.56;4371209;32;33891;-88
2022/05/20 02:08:37;;;;;;;2.78;1.67;;;;;;;12.69;56.58;100720.72;4362924;32;34624;-87
2022/05/20 02:11:26;;;;;;;1.80;1.48;;;;;;;12.60;57.25;100715.75;4386961;32;33155;-88
2022/05/20 02:14:05;;;;;;;2.40;1.65;;;;;;;12.65;57.18;100714.66;4364878;32;32635;-88
2022/05/20 02:16:37;;;;;;;2.92;2.40;;;;;;;12.44;57.99;100726.94;4368329;32;32446;-88
2022/05/20 02:19:30;;;;;;;6.43;2.15;;;;;;;12.56;57.58;100718.50;4344681;32;33327;-90
2022/05/20 02:22:00;;;;;;;2.03;1.83;;;;;;;12.48;57.49;100717.91;4374448;32;32414;-89
2022/05/20 02:24:31;;;;;;;1.77;1.50;;;;;;;12.47;57.55;100724.16;4362717;32;32753;-90
2022/05/20 02:27:06;;;;;;;5.62;1.90;;;;;;;12.45;57.44;100711.91;4369831;32;33282;-91
2022/05/20 02:29:40;;;;;;;3.12;1.70;;;;;;;12.52;57.49;100718.69;4383614;32;33685;-91
2022/05/20 02:32:35;;;;;;;2.17;1.70;;;;;;;12.43;57.10;100722.53;4382539;32;33308;-91
2022/05/20 02:35:05;;;;;;;5.65;1.50;;;;;;;12.43;57.21;100725.19;4358013;32;32043;-91
2022/05/20 02:37:41;;;;;;;2.12;1.50;;;;;;;12.37;57.16;100725.41;4369526;32;34394;-90
2022/05/20 02:40:12;;;;;;;1.62;1.40;;;;;;;12.35;57.40;100719.31;4363702;32;33669;-90
2022/05/20 02:42:40;;;;;;;2.72;1.60;;;;;;;12.22;57.88;100716.25;4369788;32;33797;-89
2022/05/20 02:45:09;;;;;;;2.50;2.10;;;;;;;12.28;57.71;100709.84;4375680;32;33374;-91
2022/05/20 02:47:37;;;;;;;2.45;1.85;;;;;;;12.23;58.06;100711.81;4359926;32;32960;-90
2022/05/20 02:50:08;;;;;;;3.03;1.95;;;;;;;12.19;58.40;100705.75;4367847;32;32793;-92
2022/05/20 02:57:22;;;;;;;2.30;1.60;;;;;;;12.20;58.10;100693.38;4362437;32;32958;-90
2022/05/20 03:05:30;;;;;;;3.60;1.90;;;;;;;12.24;57.68;100687.03;4347472;33;32912;-90
2022/05/20 03:08:07;;;;;;;2.33;1.45;;;;;;;12.11;58.04;100685.78;4337227;32;32902;-90
2022/05/20 03:10:36;;;;;;;3.75;2.15;;;;;;;12.20;57.71;100690.72;4352244;32;33904;-88
2022/05/20 03:13:06;;;;;;;3.45;2.12;;;;;;;12.12;58.30;100684.87;4391765;32;32869;-87
2022/05/20 03:15:37;;;;;;;5.20;2.22;;;;;;;12.18;58.22;100682.84;4364870;32;33910;-87
2022/05/20 03:18:08;;;;;;;3.00;1.70;;;;;;;12.10;58.84;100689.31;4377470;32;33178;-86
2022/05/20 03:20:37;;;;;;;4.15;2.22;;;;;;;12.22;58.17;100692.41;4349492;32;33292;-87
2022/05/20 03:23:06;;;;;;;5.20;2.05;;;;;;;12.06;58.97;100683.31;4388331;32;32859;-87
2022/05/20 03:25:35;;;;;;;5.28;2.05;;;;;;;12.22;58.52;100694.19;4385437;32;32522;-88
2022/05/20 03:28:10;;;;;;;2.72;2.03;;;;;;;12.18;58.52;100698.72;4364019;32;33397;-87
2022/05/20 03:30:38;;;;;;;3.33;2.03;;;;;;;12.32;57.90;100692.94;4376141;32;33435;-87
2022/05/20 03:33:05;;;;;;;3.37;2.08;;;;;;;12.22;58.51;100699.50;4359423;32;33411;-89
2022/05/20 03:35:34;;;;;;;2.95;1.60;;;;;;;12.33;58.21;100696.44;4371736;32;32661;-89
2022/05/20 03:38:02;;;;;;;2.53;2.30;;;;;;;12.39;58.08;100690.91;4354471;32;32735;-90
2022/05/20 03:40:31;;;;;;;4.50;2.28;;;;;;;12.51;57.60;100691.31;4367610;32;32683;-89
2022/05/20 03:43:02;;;;;;;5.93;2.83;;;;;;;12.45;58.09;100680.97;4378261;32;33673;-90
2022/05/20 03:45:31;;;;;;;4.43;2.28;;;;;;;12.48;58.07;100696.72;4378315;32;32582;-91
2022/05/20 03:48:00;;;;;;;3.87;2.22;;;;;;;12.53;57.93;100693.91;4355910;32;32616;-90
2022/05/20 03:50:29;;;;;;;5.97;1.60;;;;;;;12.62;57.81;100687.41;4374054;32;33649;-90
2022/05/20 03:52:59;;;;;;;3.42;2.10;;;;;;;12.58;57.95;100686.69;4364023;32;34248;-89
2022/05/20 03:55:28;;;;;;;5.55;2.30;;;;;;;12.62;58.46;100698.00;4370970;32;33214;-89
2022/05/20 03:57:55;;;;;;;3.60;2.45;;;;;;;12.64;58.69;100690.87;4368162;32;33217;-88
2022/05/20 04:00:23;;;;;;;3.60;2.47;;;;;;;12.66;58.75;100683.72;4367925;32;32575;-88
2022/05/20 04:02:52;;;;;;;9.55;2.58;;;;;;;12.84;58.20;100688.31;4380324;32;32785;-88
2022/05/20 04:05:20;;;;;;;3.92;2.67;;;;;;;12.86;58.32;100681.16;4353920;32;33037;-87
2022/05/20 04:07:48;;;;;;;4.03;2.22;;;;;;;13.20;57.06;100679.84;4363125;32;32953;-86
2022/05/20 04:10:17;;;;;;;3.35;2.20;;;;;;;12.99;57.83;100679.75;4374277;32;34545;-86
2022/05/20 04:12:47;;;;;;;4.37;2.42;;;;;;;13.08;57.83;100687.34;4382134;32;32877;-87
2022/05/20 04:15:22;;;;;;;5.75;2.42;;;;;;;13.23;58.29;100685.03;4373796;32;32636;-86
2022/05/20 04:17:51;;;;;;;5.30;2.37;;;;;;;13.55;57.30;100684.56;4366883;32;33413;-87
2022/05/20 04:20:20;;;;;;;4.12;2.70;;;;;;;13.43;58.22;100689.53;4364809;32;33499;-87
2022/05/20 04:22:48;;;;;;;6.68;2.83;;;;;;;13.30;59.14;100684.75;4375439;32;33681;-89
2022/05/20 04:25:16;;;;;;;7.43;2.85;;;;;;;13.56;58.15;100688.09;4366599;32;33950;-89
2022/05/20 04:27:45;;;;;;;9.43;2.67;;;;;;;13.82;57.41;100690.53;4379077;32;33416;-89
2022/05/20 04:30:13;;;;;;;4.47;2.20;;;;;;;14.09;56.42;100679.59;4366706;32;34648;-89
2022/05/20 04:32:46;;;;;;;5.68;2.95;;;;;;;14.28;55.98;100674.34;4379940;32;33413;-89
2022/05/20 04:35:15;;;;;;;6.87;2.78;;;;;;;14.53;55.34;100672.34;4367902;32;33221;-89
2022/05/20 04:40:27;;;;;;;8.00;2.65;;;;;;;15.13;52.89;100679.28;4387074;32;34312;-88
2022/05/20 04:46:56;;;;;;;4.35;2.30;;;;;;;14.98;52.32;100681.72;4386009;32;34178;-85
2022/05/20 04:48:36;;;;;;;10.57;2.67;;;;;;;14.81;53.94;100674.56;4361459;32;32671;-86
2022/05/20 04:51:04;;;;;;;3.20;1.95;;;;;;;14.77;54.72;100669.47;4375172;32;33879;-87
2022/05/20 04:56:25;;;;;;;4.93;1.95;;;;;;;15.12;53.33;100665.09;4360696;32;34114;-89
2022/05/20 04:58:57;;;;;;;;;;;;;;;15.12;53.47;100673.09;4388311;32;33904;-89
2022/05/20 05:01:27;;;;;;;5.62;1.70;;;;;;;15.59;50.64;100678.72;4381763;32;31764;-90
2022/05/20 05:03:56;;;;;;;2.22;1.90;;;;;;;15.82;50.43;100674.06;4371124;32;33344;-88
2022/05/20 05:06:25;;;;;;;19.17;2.80;;;;;;;15.66;51.48;100681.94;4371797;32;33720;-94
2022/05/20 05:09:11;;;;;;;7.65;2.03;;;;;;;15.64;52.42;100680.31;4377085;32;32364;-89
2022/05/20 05:11:42;;;;;;;6.80;2.37;;;;;;;16.00;51.15;100682.88;4373864;32;32330;-92
2022/05/20 05:14:27;;;;;;;6.07;2.42;;;;;;;16.41;48.83;100690.50;4395318;32;32800;-90
2022/05/20 05:20:52;;;;;;;5.10;1.95;;;;;;;16.62;49.01;100684.87;4388793;32;32453;-91
2022/05/20 05:23:54;;;;;;;4.05;1.62;;;;;;;16.89;48.47;100682.50;4389628;32;33844;-91
2022/05/20 05:26:46;;;;;;;3.72;2.00;;;;;;;16.98;48.44;100675.81;4371605;32;33267;-92
2022/05/20 05:29:27;;;;;;;5.85;2.00;;;;;;;16.98;47.53;100669.59;4364227;32;32747;-90
2022/05/20 05:32:09;;;;;;;5.68;2.67;;;;;;;16.92;48.54;100668.16;4345310;33;32419;-90
2022/05/20 05:35:02;;;;;;;4.90;2.40;;;;;;;16.96;47.93;100664.37;4344853;32;33006;-90
2022/05/20 05:37:45;;;;;;;5.55;3.00;;;;;;;17.49;47.57;100654.22;4345788;32;32679;-89
2022/05/20 05:40:19;;;;;;;6.65;2.47;;;;;;;17.65;47.39;100655.88;4360329;32;32796;-89
2022/05/20 05:42:55;;;;;;;6.28;2.58;;;;;;;18.24;46.72;100652.38;4232838;33;3581235;-89
2022/05/20 05:45:32;;;;;;;13.73;2.85;;;;;;;18.57;44.74;100654.75;4347006;32;32624;-89
2022/05/20 05:48:03;;;;;;;15.73;4.80;;;;;;;18.89;44.69;100661.59;4360383;32;33051;-89
2022/05/20 05:50:32;;;;;;;13.38;3.37;;;;;;;19.00;42.70;100646.69;4347246;32;34090;-89
2022/05/20 05:53:02;;;;;;;11.50;3.20;;;;;;;18.87;42.66;100652.81;4352603;32;33628;-90
2022/05/20 05:55:33;;;;;;;1.80;1.70;;;;;;;19.01;41.36;100643.91;4356671;32;32823;-91
2022/05/20 05:58:21;;;;;;;3.35;2.15;;;;;;;18.87;37.13;100652.81;4347590;32;33489;-87
2022/05/20 06:00:49;;;;;;;5.68;2.50;;;;;;;19.30;40.29;100651.84;4344373;32;33316;-87
2022/05/20 06:03:20;;;;;;;8.63;2.08;;;;;;;19.58;40.58;100648.16;4356431;32;32205;-87
2022/05/20 06:05:50;;;;;;;4.47;2.05;;;;;;;19.85;37.78;100640.09;4348381;32;33671;-87
2022/05/20 06:08:18;;;;;;;4.03;1.95;;;;;;;19.98;35.63;100634.72;4342126;32;32708;-88
2022/05/20 06:10:50;;;;;;;3.25;1.85;;;;;;;20.15;34.56;100643.31;4333209;32;33155;-88
2022/05/20 06:13:26;;;;;;;5.18;2.62;;;;;;;20.67;36.10;100638.78;4344034;32;34204;-88
2022/05/20 06:15:56;;;;;;;3.62;1.85;;;;;;;20.77;32.84;100633.59;4348556;32;33634;-88
2022/05/20 06:18:26;;;;;;;3.08;2.00;;;;;;;21.05;33.97;100633.28;4344766;32;35204;-88
2022/05/20 06:20:56;;;;;;;6.20;1.67;;;;;;;21.58;33.17;100628.41;4356257;32;33357;-89
2022/05/20 06:23:27;;;;;;;11.32;2.00;;;;;;;21.82;33.04;100627.50;4343878;32;32735;-89
2022/05/20 06:26:02;;;;;;;7.65;2.10;;;;;;;21.39;31.06;100628.09;4350845;32;33179;-87
2022/05/20 06:28:46;;;;;;;5.57;1.70;;;;;;;21.70;31.00;100624.78;4351330;32;33759;-88
2022/05/20 06:31:15;;;;;;;7.72;2.22;;;;;;;21.73;32.40;100629.06;4357953;32;34949;-88
2022/05/20 06:33:45;;;;;;;4.28;2.08;;;;;;;21.90;30.31;100630.44;4345261;32;32687;-87
2022/05/20 06:41:48;;;;;;;5.53;1.12;;;;;;;22.35;30.62;100620.59;4354251;32;33823;-88
2022/05/20 06:44:22;;;;;;;4.62;1.70;;;;;;;22.47;30.41;100624.16;4356327;32;34079;-88
2022/05/20 06:46:52;;;;;;;7.10;2.00;;;;;;;21.91;30.30;100632.16;4338329;32;32638;-88
2022/05/20 06:49:21;;;;;;;4.25;1.52;;;;;;;22.58;30.71;100632.22;4336452;32;34908;-88
2022/05/20 06:51:54;;;;;;;6.50;2.03;;;;;;;22.71;31.91;100630.25;4367253;32;33934;-88
2022/05/20 06:54:28;;;;;;;2.08;1.48;;;;;;;22.55;31.58;100627.09;4357826;32;32777;-88
2022/05/20 06:59:35;;;;;;;10.45;2.00;;;;;;;22.51;31.74;100636.41;4354903;32;33212;-88
2022/05/20 07:02:06;;;;;;;3.40;1.80;;;;;;;22.53;32.08;100633.56;4341937;32;33042;-88
2022/05/20 07:04:49;;;;;;;6.45;2.40;;;;;;;22.16;31.70;100642.72;4353926;32;32862;-88
2022/05/20 07:07:18;;;;;;;5.55;2.08;;;;;;;22.63;30.61;100646.16;4359061;32;32774;-88
2022/05/20 07:09:47;;;;;;;5.28;2.20;;;;;;;22.87;30.61;100639.75;4353801;32;34309;-88
2022/05/20 07:12:21;;;;;;;6.62;2.22;;;;;;;22.92;30.71;100633.03;4354023;32;33069;-88
2022/05/20 07:14:50;;;;;;;5.50;2.30;;;;;;;23.19;31.49;100637.16;4361944;32;32515;-87
2022/05/20 07:17:20;;;;;;;8.05;2.50;;;;;;;23.07;31.20;100652.47;4357579;32;33648;-88
2022/05/20 07:19:51;;;;;;;5.95;1.92;;;;;;;23.38;31.61;100639.16;4359790;32;34002;-88
2022/05/20 07:22:21;;;;;;;2.08;1.85;;;;;;;23.47;30.70;100635.69;4353034;32;32217;-89
2022/05/20 07:24:55;;;;;;;6.77;1.77;;;;;;;23.79;30.25;100640.22;4364809;32;32064;-89
2022/05/20 07:27:24;;;;;;;7.55;1.50;;;;;;;23.52;28.94;100636.16;4356005;32;33850;-88
2022/05/20 07:29:55;;;;;;;5.30;2.05;;;;;;;23.71;29.71;100647.13;4351395;32;34410;-90
2022/05/20 07:32:23;;;;;;;7.15;1.40;;;;;;;23.88;28.50;100631.31;4351564;32;32578;-88
2022/05/20 07:34:52;;;;;;;3.22;1.90;;;;;;;23.24;28.69;100641.16;4366656;32;33395;-88
2022/05/20 07:37:20;;;;;;;3.75;1.60;;;;;;;23.66;29.17;100645.81;4370910;32;33495;-89
2022/05/20 07:39:49;;;;;;;4.75;2.08;;;;;;;24.02;28.76;100647.16;4365667;32;33043;-89
2022/05/20 07:42:17;;;;;;;2.05;1.50;;;;;;;23.98;28.90;100632.25;4363377;32;33112;-89
2022/05/20 07:47:33;;;;;;;1.80;1.67;;;;;;;25.00;30.56;100633.94;4354827;32;34016;-89
2022/05/20 07:50:04;;;;;;;3.25;1.98;;;;;;;24.87;27.78;100638.75;4374833;32;33637;-89
2022/05/20 07:55:34;;;;;;;5.78;1.27;;;;;;;25.07;28.21;100630.66;4373041;32;31888;-89
2022/05/20 07:58:07;;;;;;;5.28;2.08;;;;;;;24.89;28.33;100633.22;4370485;32;33086;-89
2022/05/20 08:00:39;;;;;;;5.55;2.17;;;;;;;25.43;27.67;100623.75;4357770;32;34361;-90
2022/05/20 08:03:13;;;;;;;6.07;1.52;;;;;;;25.02;29.06;100620.31;4367955;32;32782;-89
2022/05/20 08:05:43;;;;;;;6.03;1.92;;;;;;;25.11;28.73;100615.91;4349136;32;32054;-89
2022/05/20 08:08:12;;;;;;;2.37;1.87;;;;;;;25.13;27.30;100622.06;4350321;32;33426;-89
2022/05/20 08:10:43;;;;;;;4.05;1.62;;;;;;;24.86;28.76;100619.97;4355643;32;33522;-89
2022/05/20 08:13:11;;;;;;;3.42;1.70;;;;;;;24.90;28.07;100616.00;4354332;32;33813;-89
2022/05/20 08:15:40;;;;;;;6.40;1.90;;;;;;;25.45;29.27;100610.97;4341968;32;32222;-89
2022/05/20 08:18:08;;;;;;;3.72;2.08;;;;;;;25.07;28.65;100604.56;4373248;32;33637;-89
2022/05/20 08:20:41;;;;;;;5.85;1.73;;;;;;;25.24;27.97;100603.84;4369301;32;34023;-90
2022/05/20 08:23:09;;;;;;;3.42;1.40;;;;;;;25.57;27.85;100614.38;4367288;32;33672;-89
2022/05/20 08:25:38;;;;;;;6.28;1.52;;;;;;;25.37;29.18;100613.53;4355387;32;33408;-89
2022/05/20 08:28:07;;;;;;;3.35;1.75;;;;;;;25.64;27.80;100600.13;4367492;32;33926;-90
2022/05/20 08:30:36;;;;;;;2.42;1.90;;;;;;;25.50;28.02;100597.88;4351161;32;33894;-87
2022/05/20 08:33:11;;;;;;;5.15;1.58;;;;;;;25.84;28.53;100597.41;4366575;32;33591;-88
2022/05/20 08:35:39;;;;;;;2.95;1.50;;;;;;;25.96;27.86;100598.94;4363995;32;31874;-88
2022/05/20 08:38:08;;;;;;;2.22;1.45;;;;;;;25.93;28.30;100596.53;4371885;32;34326;-87
2022/05/20 08:40:43;;;;;;;4.03;1.58;;;;;;;25.83;29.38;100592.97;4371917;32;32672;-87
2022/05/20 08:43:12;;;;;;;2.47;1.40;;;;;;;26.07;27.29;100590.66;4359011;32;33105;-87
2022/05/20 08:45:41;;;;;;;3.03;1.40;;;;;;;26.74;26.96;100575.97;4365689;32;33344;-88
2022/05/20 08:48:12;;;;;;;3.40;1.62;;;;;;;26.43;26.74;100574.56;4372039;32;33967;-87
2022/05/20 08:50:44;;;;;;;2.08;1.35;;;;;;;26.43;26.46;100566.44;4374992;32;33362;-88
2022/05/20 08:53:19;;;;;;;7.97;2.35;;;;;;;26.30;26.86;100564.91;4372268;32;33763;-88
2022/05/20 08:55:48;;;;;;;5.03;1.62;;;;;;;26.94;25.71;100568.53;4357723;32;32611;-87
2022/05/20 08:58:22;;;;;;;4.82;1.25;;;;;;;26.58;26.27;100562.22;4367609;32;35295;-87
2022/05/20 09:00:50;;;;;;;;;;;;;;;27.08;25.71;100564.47;4365803;32;33440;-87
2022/05/20 09:03:22;;;;;;;4.37;1.12;;;;;;;26.95;25.63;100558.53;4373901;32;34131;-88
2022/05/20 09:06:07;;;;;;;2.92;1.08;;;;;;;27.01;26.13;100553.38;4370180;32;32267;-87
2022/05/20 09:08:39;;;;;;;1.77;1.30;;;;;;;27.60;25.01;100536.59;4367650;32;33691;-87
2022/05/20 09:11:14;;;;;;;2.37;1.52;;;;;;;27.50;26.24;100536.69;4354946;32;34320;-87
2022/05/20 09:16:34;;;;;;;3.33;1.20;;;;;;;27.60;25.46;100526.59;4368611;32;33148;-87
2022/05/20 09:19:11;;;;;;;2.70;1.58;;;;;;;27.79;25.32;100526.41;4377365;32;34367;-87
2022/05/20 09:21:47;;;;;;;1.42;1.33;;;;;;;27.12;27.30;100527.91;4368070;32;33857;-87
2022/05/20 09:24:20;;;;;;;4.53;1.40;;;;;;;27.92;25.97;100535.97;4357033;32;34773;-87
2022/05/20 09:27:13;;;;;;;4.37;2.03;;;;;;;28.52;26.97;100523.16;4370649;32;33169;-89
2022/05/20 09:29:46;;;;;;;6.72;1.98;;;;;;;27.79;25.22;100525.56;4352732;32;35283;-88
2022/05/20 09:32:25;;;;;;;6.35;1.67;;;;;;;28.15;26.60;100514.50;4373182;32;33771;-88
2022/05/20 09:35:04;;;;;;;1.33;1.20;;;;;;;28.02;26.56;100515.00;4368389;32;32727;-88
2022/05/20 09:37:53;;;;;;;6.20;1.87;;;;;;;27.64;26.10;100517.12;4355608;32;33353;-87
2022/05/20 09:40:21;;;;;;;5.22;1.92;;;;;;;28.05;26.07;100504.63;4369320;32;34297;-88
2022/05/20 09:43:28;;;;;;;2.62;1.65;;;;;;;28.34;24.46;100503.41;4363031;32;34135;-88
2022/05/20 09:45:59;;;;;;;3.83;1.75;;;;;;;28.09;25.10;100494.31;4369190;32;32816;-88
2022/05/20 09:48:50;;;;;;;4.25;1.90;;;;;;;28.39;25.26;100505.63;4375391;32;33163;-88
2022/05/20 09:51:34;;;;;;;2.60;1.23;;;;;;;28.89;26.04;100502.00;4359663;32;32380;-88
2022/05/20 09:54:33;;;;;;;4.35;1.95;;;;;;;28.54;24.47;100502.13;4373219;32;32688;-88
2022/05/20 09:57:11;;;;;;;3.10;1.93;;;;;;;29.14;25.60;100505.63;4353370;32;32495;-87
2022/05/20 09:59:47;;;;;;;5.78;1.75;;;;;;;29.22;24.66;100506.47;4343520;32;33750;-87
2022/05/20 10:02:49;;;;;;;7.95;1.77;;;;;;;29.35;24.66;100514.13;4368585;32;34743;-87
2022/05/20 10:05:41;;;;;;;3.53;1.75;;;;;;;28.77;25.32;100515.94;4353544;32;33671;-87
2022/05/20 10:08:20;;;;;;;2.95;1.83;;;;;;;29.24;24.44;100490.81;4364842;32;33693;-88
2022/05/20 10:11:07;;;;;;;3.17;2.22;;;;;;;29.74;25.07;100503.38;4354995;32;33054;-88
2022/05/20 10:14:03;;;;;;;1.83;1.67;;;;;;;29.02;25.40;100502.41;4366201;32;33855;-87
2022/05/20 10:16:41;;;;;;;2.40;1.48;;;;;;;29.18;25.68;100491.50;4370205;32;33404;-87
2022/05/20 10:19:21;;;;;;;4.43;2.25;;;;;;;29.54;24.70;100485.69;4368499;32;33813;-87
2022/05/20 10:22:11;;;;;;;8.77;2.10;;;;;;;29.08;25.67;100491.69;4341169;32;33525;-87
2022/05/20 10:25:06;;;;;;;8.52;2.00;;;;;;;30.12;25.93;100483.66;4362649;32;32624;-90
2022/05/20 10:32:33;;;;;;;2.87;1.40;;;;;;;29.77;25.00;100474.97;4365980;32;33191;-91
2022/05/20 10:33:54;;;;;;;2.78;1.85;;;;;;;29.53;25.10;100475.81;4369097;32;32086;-91
2022/05/20 10:36:39;;;;;;;4.68;2.20;;;;;;;29.94;24.15;100465.69;4353947;32;33844;-90
2022/05/20 10:42:41;;;;;;;3.53;1.55;;;;;;;30.96;23.56;100482.00;4378567;32;34177;-91
2022/05/20 10:48:37;;;;;;;3.97;2.00;;;;;;;31.15;23.11;100470.59;4369510;32;34837;-90
2022/05/20 10:51:32;;;;;;;6.18;2.47;;;;;;;30.91;23.53;100462.59;4348794;32;32718;-90
2022/05/20 10:54:39;;;;;;;8.05;1.80;;;;;;;31.04;24.14;100457.37;4378381;32;32535;-91
2022/05/20 10:57:14;;;;;;;6.75;1.73;;;;;;;30.76;24.37;100460.66;4366413;32;33319;-91
2022/05/20 11:00:03;;;;;;;3.67;2.03;;;;;;;30.72;24.54;100453.91;4351280;32;33194;-88
2022/05/20 11:02:33;;;;;;;3.53;1.75;;;;;;;31.04;23.08;100447.31;4350745;32;33387;-88
2022/05/20 11:05:42;;;;;;;5.10;2.15;;;;;;;30.67;25.59;100449.97;4364697;32;32386;-87
2022/05/20 11:08:36;;;;;;;3.55;2.08;;;;;;;31.33;24.01;100440.25;4350698;32;31966;-88
2022/05/20 11:11:25;;;;;;;4.80;1.70;;;;;;;31.03;22.71;100444.78;4363253;32;33621;-88
2022/05/20 11:14:08;;;;;;;4.45;1.77;;;;;;;30.59;23.78;100445.44;4351611;32;33353;-88
2022/05/20 11:16:55;;;;;;;5.30;2.30;;;;;;;30.72;24.38;100439.44;4364184;32;34490;-88
2022/05/20 11:20:17;;;;;;;2.37;1.70;;;;;;;30.71;23.66;100430.37;4350491;32;31776;-87
2022/05/20 11:22:51;;;;;;;3.80;2.00;;;;;;;31.03;24.44;100425.69;4326466;32;32798;-88
2022/05/20 11:25:47;;;;;;;4.05;1.60;;;;;;;31.60;23.29;100415.03;4338312;32;34207;-88
2022/05/20 11:28:20;;;;;;;2.05;1.87;;;;;;;31.93;24.33;100411.09;4329853;32;32709;-88
2022/05/20 11:31:16;;;;;;;3.53;1.75;;;;;;;31.85;25.49;100422.97;4363022;32;32633;-88
2022/05/20 11:34:17;;;;;;;5.18;2.35;;;;;;;32.04;22.18;100416.91;4367231;32;33164;-88
2022/05/20 11:37:29;;;;;;;4.05;1.65;;;;;;;31.73;23.22;100413.53;4336051;33;33655;-88
2022/05/20 11:40:09;;;;;;;4.07;1.80;;;;;;;32.23;22.38;100409.97;4349332;33;34239;-88
2022/05/20 11:42:59;;;;;;;13.52;2.08;;;;;;;32.26;22.29;100397.81;4348120;33;33462;-88
2022/05/20 11:45:47;;;;;;;3.85;2.30;;;;;;;32.54;22.12;100400.66;4349065;33;34759;-88
2022/05/20 11:48:44;;;;;;;3.72;2.15;;;;;;;32.09;23.18;100391.72;4335703;33;33690;-88
2022/05/20 11:51:24;;;;;;;;;;;;;;;32.17;23.91;100386.16;4348357;33;33729;-88
2022/05/20 11:54:06;;;;;;;4.07;1.75;;;;;;;31.93;23.64;100381.88;4347993;33;32776;-87
2022/05/20 11:56:59;;;;;;;2.97;2.05;;;;;;;32.31;22.69;100378.94;4347630;33;33641;-88
2022/05/20 11:59:45;;;;;;;3.05;1.83;;;;;;;32.36;25.72;100385.56;4345417;33;34389;-88
2022/05/20 12:02:17;;;;;;;2.05;1.80;;;;;;;32.92;22.44;100373.06;4311382;33;32667;-88
2022/05/20 12:04:47;;;;;;;7.65;2.10;;;;;;;33.25;22.84;100371.38;4336111;33;33707;-88
2022/05/20 12:07:23;;;;;;;4.75;1.77;;;;;;;33.08;22.55;100364.53;4324047;33;35334;-87
2022/05/20 12:10:00;;;;;;;3.70;2.20;;;;;;;32.91;24.36;100365.91;4335655;33;33920;-88
2022/05/20 12:12:31;;;;;;;4.25;2.10;;;;;;;32.65;23.58;100364.59;4347407;33;32530;-88
2022/05/20 12:17:50;;;;;;;4.95;2.30;;;;;;;32.82;23.05;100354.22;4348947;33;33621;-87
2022/05/20 12:26:00;;;;;;;2.78;1.67;;;;;;;32.01;25.29;100356.34;4348853;33;33408;-88
2022/05/20 12:28:31;;;;;;;;;;;;;;;31.53;25.15;100348.63;4348085;33;34024;-87
2022/05/20 12:31:13;;;;;;;7.22;1.87;;;;;;;31.87;24.11;100348.00;4347744;33;33004;-88
2022/05/20 12:34:05;;;;;;;5.97;1.75;;;;;;;32.39;25.79;100347.97;4334247;32;33486;-88
2022/05/20 12:36:42;;;;;;;2.80;2.03;;;;;;;32.70;25.24;100345.69;4363826;32;34195;-88
2022/05/20 12:39:20;;;;;;;4.70;1.87;;;;;;;32.91;23.42;100338.53;4366099;32;33940;-87
2022/05/20 12:41:56;;;;;;;3.90;1.55;;;;;;;32.80;27.08;100334.41;4371902;32;35768;-85
2022/05/20 12:44:36;;;;;;;4.40;1.87;;;;;;;33.22;22.63;100328.00;4370638;32;33799;-89
2022/05/20 12:47:15;;;;;;;4.87;2.05;;;;;;;33.04;23.07;100333.13;4373564;32;33804;-89
2022/05/20 12:49:47;;;;;;;11.98;1.90;;;;;;;32.98;22.90;100333.94;4370093;32;33231;-88
2022/05/20 12:52:27;;;;;;;4.30;1.92;;;;;;;33.03;22.88;100331.47;4355614;32;34775;-88
2022/05/20 12:55:33;;;;;;;4.20;1.67;;;;;;;33.12;23.02;100325.63;4367302;32;33725;-88
2022/05/20 12:58:08;;;;;;;12.68;2.25;;;;;;;32.85;22.76;100320.97;4358012;32;33430;-88
2022/05/20 13:00:44;;;;;;;4.90;2.17;;;;;;;32.97;23.01;100322.16;4341252;32;33045;-87
2022/05/20 13:03:30;;;;;;;2.58;1.40;;;;;;;32.72;22.98;100324.50;4338485;32;33022;-88